Time;durP1;ratioP1;P1;durP2;ratioP2;P2;SDS_P1;SDS_P2;PMS_P1;PMS_P2;Temp;Humidity;BMP_temperature;BMP_pressure;BME280_temperature;BME280_humidity;BME280_pressure;Samples;Min_cycle;Max_cycle;Signal;HPM_P1;HPM_P2
2022/03/03 00:01:32;;;;;;;65.57;32.85;;;-3276.20;89.40;;;;;;5041140;28;20465;-79
2022/03/03 00:03:57;;;;;;;71.00;32.92;;;-3276.20;89.70;;;;;;5043605;28;20090;-80
2022/03/03 00:06:23;;;;;;;64.82;32.67;;;-3276.30;89.80;;;;;;5050835;28;20120;-79
2022/03/03 00:08:48;;;;;;;66.32;33.10;;;-3276.20;89.90;;;;;;5030124;28;20060;-79
2022/03/03 00:11:14;;;;;;;72.88;33.88;;;-3276.20;89.90;;;;;;5031936;28;20037;-79
2022/03/03 00:13:39;;;;;;;63.05;32.50;;;-3276.00;89.90;;;;;;5021799;28;20124;-79
2022/03/03 00:16:05;;;;;;;71.22;33.17;;;-3276.00;89.90;;;;;;5044986;28;20089;-80
2022/03/03 00:18:31;;;;;;;65.90;32.13;;;-3275.90;90.20;;;;;;5024772;28;20404;-79
2022/03/03 00:20:56;;;;;;;65.65;33.05;;;-3275.90;90.30;;;;;;5046795;28;20064;-79
2022/03/03 00:23:22;;;;;;;65.30;33.33;;;-3275.90;90.40;;;;;;5028473;28;20056;-79
2022/03/03 00:25:47;;;;;;;68.93;34.50;;;-3275.80;90.50;;;;;;5030000;28;20078;-79
2022/03/03 00:28:14;;;;;;;70.90;33.35;;;-3275.80;90.60;;;;;;5027871;28;20432;-79
2022/03/03 00:30:39;;;;;;;76.35;33.53;;;-3275.70;90.70;;;;;;5030400;28;20032;-79
2022/03/03 00:33:05;;;;;;;70.00;34.80;;;-3275.70;90.80;;;;;;5030891;28;20071;-79
2022/03/03 00:35:30;;;;;;;68.88;34.25;;;-3275.60;90.70;;;;;;5043947;28;20339;-79
2022/03/03 00:37:56;;;;;;;79.80;35.22;;;-3275.50;90.80;;;;;;5018449;28;20127;-79
2022/03/03 00:40:21;;;;;;;74.30;34.08;;;-3275.50;90.90;;;;;;5033765;28;20459;-80
2022/03/03 00:42:47;;;;;;;75.45;34.70;;;-3275.50;91.00;;;;;;5042335;28;20507;-80
2022/03/03 00:45:12;;;;;;;81.18;36.67;;;-3275.40;91.10;;;;;;5044127;28;20151;-80
2022/03/03 00:47:38;;;;;;;85.10;37.65;;;-3275.40;91.10;;;;;;5027666;28;20037;-80
2022/03/03 00:50:04;;;;;;;78.95;37.15;;;-3275.40;91.20;;;;;;5029770;28;20103;-80
2022/03/03 00:52:30;;;;;;;76.80;35.53;;;-3275.30;91.30;;;;;;5027515;28;20514;-80
2022/03/03 00:54:56;;;;;;;80.03;36.55;;;-3275.30;91.30;;;;;;5026670;28;20101;-80
2022/03/03 00:57:22;;;;;;;77.15;36.17;;;-3275.30;91.40;;;;;;5029587;28;20611;-80
2022/03/03 00:59:47;;;;;;;87.80;36.97;;;-3275.30;91.40;;;;;;5027068;28;20069;-80
2022/03/03 01:02:13;;;;;;;81.85;37.00;;;-3275.20;91.40;;;;;;5016028;28;20033;-80
2022/03/03 01:04:38;;;;;;;86.18;37.85;;;-3275.20;91.50;;;;;;5033279;28;20098;-79
2022/03/03 01:07:05;;;;;;;92.25;39.00;;;-3275.20;91.50;;;;;;5045701;28;20055;-79
2022/03/03 01:09:31;;;;;;;83.97;36.88;;;-3275.20;91.60;;;;;;5031459;28;20039;-80
2022/03/03 01:11:56;;;;;;;88.63;37.92;;;-3275.30;91.80;;;;;;5027870;28;20148;-80
2022/03/03 01:14:23;;;;;;;91.65;38.63;;;-3275.20;91.80;;;;;;5052330;28;20483;-79
2022/03/03 01:16:50;;;;;;;103.35;40.95;;;-3275.30;92.00;;;;;;5023244;28;20136;-79
2022/03/03 01:19:16;;;;;;;91.22;39.90;;;-3275.30;92.00;;;;;;5027969;28;20028;-79
2022/03/03 01:21:41;;;;;;;99.90;39.33;;;-3275.30;92.10;;;;;;5044575;28;20032;-79
2022/03/03 01:24:07;;;;;;;113.57;43.25;;;-3275.40;92.30;;;;;;5030216;28;20033;-79
2022/03/03 01:26:33;;;;;;;104.10;41.75;;;-3275.30;92.20;;;;;;5045407;28;20108;-79
2022/03/03 01:28:58;;;;;;;105.07;42.03;;;-3275.30;92.20;;;;;;5027805;28;20180;-79
2022/03/03 01:31:24;;;;;;;106.20;42.38;;;-3275.30;92.30;;;;;;5032632;28;20484;-80
2022/03/03 01:33:49;;;;;;;113.13;41.67;;;-3275.30;92.40;;;;;;5030381;28;20059;-80
2022/03/03 01:36:15;;;;;;;100.93;43.05;;;-3275.30;92.40;;;;;;5029300;28;20314;-80
2022/03/03 01:38:40;;;;;;;125.18;45.25;;;-3275.30;92.50;;;;;;5032694;28;20444;-80
2022/03/03 01:41:07;;;;;;;131.82;46.50;;;-3275.30;92.60;;;;;;5029437;28;20175;-80
2022/03/03 01:43:32;;;;;;;128.07;45.60;;;-3275.40;92.60;;;;;;5028307;28;20101;-80
2022/03/03 01:45:58;;;;;;;127.30;45.63;;;-3275.50;92.70;;;;;;5026672;28;20118;-80
2022/03/03 01:48:23;;;;;;;134.70;45.40;;;-3275.50;92.70;;;;;;5030866;28;20082;-80
2022/03/03 01:50:49;;;;;;;126.82;46.13;;;-3275.50;92.60;;;;;;5047548;28;20561;-80
2022/03/03 01:53:15;;;;;;;135.07;49.08;;;-3275.50;92.70;;;;;;5023248;28;20056;-80
2022/03/03 01:55:41;;;;;;;131.32;45.80;;;-3275.40;92.70;;;;;;5027059;28;20029;-80
2022/03/03 01:58:07;;;;;;;130.90;46.85;;;-3275.40;92.70;;;;;;5017203;28;20029;-80
2022/03/03 02:00:32;;;;;;;138.75;46.67;;;-3275.30;92.70;;;;;;5025674;28;20017;-80
2022/03/03 02:03:00;;;;;;;137.23;48.03;;;-3275.40;92.90;;;;;;5029701;28;20067;-80
2022/03/03 02:05:27;;;;;;;116.65;44.42;;;-3275.30;92.80;;;;;;5032931;28;20044;-80
2022/03/03 02:07:52;;;;;;;133.27;45.42;;;-3275.30;92.80;;;;;;5045364;28;20123;-80
2022/03/03 02:10:18;;;;;;;125.03;43.83;;;-3275.20;92.80;;;;;;5047711;28;20036;-80
2022/03/03 02:12:43;;;;;;;135.48;46.22;;;-3275.20;92.80;;;;;;5025735;28;20116;-80
2022/03/03 02:15:19;;;;;;;139.43;46.95;;;-3275.20;92.90;;;;;;5030341;28;20119;-79
2022/03/03 02:17:45;;;;;;;135.57;48.03;;;-3275.10;92.80;;;;;;5025390;28;20416;-79
2022/03/03 02:20:19;;;;;;;145.27;47.40;;;-3275.10;92.90;;;;;;5022565;28;20444;-79
2022/03/03 02:22:45;;;;;;;121.05;46.72;;;-3275.10;93.00;;;;;;5030355;28;20036;-79
2022/03/03 02:25:10;;;;;;;135.07;45.78;;;-3275.00;92.90;;;;;;5038040;28;20024;-79
2022/03/03 02:27:37;;;;;;;137.00;47.88;;;-3275.00;92.90;;;;;;5026770;28;20029;-79
2022/03/03 02:30:03;;;;;;;133.27;46.67;;;-3275.00;93.00;;;;;;5017829;28;20381;-79
2022/03/03 02:32:29;;;;;;;129.93;46.83;;;-3275.00;93.00;;;;;;5026738;28;20392;-79
2022/03/03 02:34:54;;;;;;;136.43;47.67;;;-3275.00;93.10;;;;;;5017943;28;20024;-79
2022/03/03 02:37:20;;;;;;;144.23;49.55;;;-3275.00;93.00;;;;;;5037391;28;20057;-79
2022/03/03 02:39:46;;;;;;;143.48;47.70;;;-3275.10;93.10;;;;;;5027572;28;20522;-79
2022/03/03 02:42:11;;;;;;;141.38;47.92;;;-3275.00;93.00;;;;;;5025865;28;20119;-79
2022/03/03 02:44:37;;;;;;;136.23;48.60;;;-3275.00;93.10;;;;;;5028883;28;20142;-79
2022/03/03 02:47:02;;;;;;;141.80;46.97;;;-3275.00;93.10;;;;;;5022059;28;20205;-80
2022/03/03 02:49:29;;;;;;;141.73;49.35;;;-3275.00;93.10;;;;;;5034408;28;20097;-79
2022/03/03 02:51:54;;;;;;;153.35;49.72;;;-3275.00;93.10;;;;;;5028806;28;20032;-79
2022/03/03 02:54:20;;;;;;;155.05;49.85;;;-3275.00;93.20;;;;;;5026623;28;20435;-80
2022/03/03 02:59:29;;;;;;;144.18;47.67;;;-3274.90;93.20;;;;;;5045715;28;20254;-79
2022/03/03 03:01:55;;;;;;;140.13;46.88;;;-3274.80;93.20;;;;;;5024542;28;20897;-79
2022/03/03 03:04:20;;;;;;;139.07;47.33;;;-3274.80;93.20;;;;;;5017958;28;20052;-79
2022/03/03 03:06:46;;;;;;;135.95;47.22;;;-3274.70;93.20;;;;;;5028030;28;20078;-79
2022/03/03 03:09:12;;;;;;;146.05;46.78;;;-3274.70;93.30;;;;;;5029227;28;20032;-79
2022/03/03 03:11:38;;;;;;;138.32;46.58;;;-3274.70;93.30;;;;;;5027994;28;20055;-79
2022/03/03 03:14:04;;;;;;;151.15;48.88;;;-3274.70;93.30;;;;;;5025931;28;20098;-79
2022/03/03 03:16:29;;;;;;;166.88;50.13;;;-3274.70;93.30;;;;;;5015956;28;20079;-79
2022/03/03 03:18:55;;;;;;;142.98;50.30;;;-3274.70;93.30;;;;;;5028112;28;20044;-78
2022/03/03 03:21:20;;;;;;;186.13;54.47;;;-3274.70;93.30;;;;;;5027395;28;20499;-79
2022/03/03 03:23:46;;;;;;;204.40;52.75;;;-3274.70;93.50;;;;;;5028668;28;20369;-79
2022/03/03 03:26:11;;;;;;;201.90;53.00;;;-3274.80;93.50;;;;;;5027110;28;20106;-79
2022/03/03 03:28:37;;;;;;;270.58;50.70;;;-3275.10;93.80;;;;;;5026300;28;20033;-79
2022/03/03 03:31:02;;;;;;;208.45;54.97;;;-3275.10;93.70;;;;;;5047076;28;20033;-79
2022/03/03 03:33:28;;;;;;;205.85;55.45;;;-3275.20;93.80;;;;;;5028164;28;20503;-80
2022/03/03 03:35:56;;;;;;;192.73;54.83;;;-3275.40;93.90;;;;;;5042794;28;20033;-80
2022/03/03 03:38:21;;;;;;;216.68;55.10;;;-3275.40;93.90;;;;;;5025717;28;20469;-80
2022/03/03 03:40:47;;;;;;;224.20;55.45;;;-3275.50;94.00;;;;;;5028639;28;20041;-79
2022/03/03 03:43:12;;;;;;;221.93;59.15;;;-3275.60;94.00;;;;;;5046797;28;20021;-79
2022/03/03 03:45:38;;;;;;;210.18;55.80;;;-3275.50;93.90;;;;;;5031131;28;20394;-80
2022/03/03 03:48:04;;;;;;;227.63;57.13;;;-3275.60;94.00;;;;;;5030387;28;20147;-79
2022/03/03 03:50:29;;;;;;;176.55;51.80;;;-3275.60;94.00;;;;;;5027720;28;20025;-79
2022/03/03 03:52:55;;;;;;;180.65;54.33;;;-3275.60;94.00;;;;;;5031395;28;20155;-79
2022/03/03 03:55:21;;;;;;;158.73;50.58;;;-3275.60;94.10;;;;;;5031356;28;20037;-79
2022/03/03 03:57:46;;;;;;;173.85;51.60;;;-3275.60;94.00;;;;;;5030087;28;20041;-79
2022/03/03 04:00:14;;;;;;;206.60;49.90;;;-3275.60;94.10;;;;;;5032123;28;20017;-79
2022/03/03 04:02:44;;;;;;;176.25;50.28;;;-3275.60;94.10;;;;;;5036498;28;20082;-80
2022/03/03 04:05:10;;;;;;;149.27;48.65;;;-3275.60;94.10;;;;;;5031309;28;20033;-80
2022/03/03 04:07:37;;;;;;;151.75;47.72;;;-3275.60;94.10;;;;;;5038511;28;20025;-80
2022/03/03 04:10:03;;;;;;;150.23;48.33;;;-3275.60;94.20;;;;;;5021367;28;20105;-79
2022/03/03 04:12:29;;;;;;;146.43;48.97;;;-3275.60;94.10;;;;;;5028846;28;20037;-80
2022/03/03 04:14:54;;;;;;;136.80;46.97;;;-3275.50;94.20;;;;;;5031807;28;20029;-80
2022/03/03 04:17:20;;;;;;;137.52;44.78;;;-3275.60;94.20;;;;;;5018456;28;20094;-80
2022/03/03 04:19:46;;;;;;;147.00;45.83;;;-3275.60;94.20;;;;;;5042978;28;20482;-80
2022/03/03 04:22:11;;;;;;;132.95;45.70;;;-3275.50;94.30;;;;;;5029694;28;20028;-79
2022/03/03 04:24:37;;;;;;;174.48;45.03;;;-3275.50;94.20;;;;;;5039954;28;20471;-80
2022/03/03 04:27:04;;;;;;;138.93;43.63;;;-3275.50;94.20;;;;;;5029547;28;20376;-80
2022/03/03 04:29:30;;;;;;;211.05;47.90;;;-3275.50;94.20;;;;;;5042270;28;20101;-80
2022/03/03 04:31:58;;;;;;;222.00;46.70;;;-3275.30;94.10;;;;;;5031568;28;20052;-80
2022/03/03 04:34:24;;;;;;;171.13;47.03;;;-3275.40;94.10;;;;;;5027561;28;20576;-80
2022/03/03 04:36:49;;;;;;;122.80;46.72;;;-3275.40;94.20;;;;;;5008103;28;20071;-80
2022/03/03 04:39:15;;;;;;;196.38;46.60;;;-3275.40;94.40;;;;;;5026646;28;20399;-79
2022/03/03 04:41:41;;;;;;;158.30;46.08;;;-3275.30;94.20;;;;;;5024675;28;20051;-80
2022/03/03 04:44:07;;;;;;;120.00;45.83;;;-3275.30;94.30;;;;;;5027623;28;20060;-80
2022/03/03 04:46:33;;;;;;;130.25;44.45;;;-3275.40;94.40;;;;;;5016794;28;20029;-80
2022/03/03 04:49:02;;;;;;;119.78;44.55;;;-3275.40;94.30;;;;;;5025774;28;20071;-80
2022/03/03 04:51:29;;;;;;;173.88;44.70;;;-3275.40;94.40;;;;;;5010151;28;20033;-80
2022/03/03 04:53:54;;;;;;;100.22;43.10;;;-3275.30;94.30;;;;;;5028825;28;20041;-80
2022/03/03 04:56:20;;;;;;;193.45;44.65;;;-3275.40;94.40;;;;;;5027165;28;20362;-80
2022/03/03 04:58:45;;;;;;;102.63;42.65;;;-3275.30;94.20;;;;;;5028290;28;20064;-80
2022/03/03 05:01:12;;;;;;;131.50;42.15;;;-3275.30;94.40;;;;;;5020255;28;20119;-80
2022/03/03 05:03:37;;;;;;;235.57;42.72;;;-3275.30;94.30;;;;;;5027567;28;20453;-80
2022/03/03 05:06:03;;;;;;;298.20;43.28;;;-3275.20;94.10;;;;;;5026904;28;20048;-80
2022/03/03 05:08:29;;;;;;;240.07;45.35;;;-3275.10;94.10;;;;;;5022813;28;20026;-81
2022/03/03 05:10:55;;;;;;;123.47;41.03;;;-3275.20;94.40;;;;;;5017439;28;20591;-79
2022/03/03 05:13:21;;;;;;;104.45;40.35;;;-3275.20;94.40;;;;;;5020600;28;20073;-80
2022/03/03 05:15:46;;;;;;;165.95;40.60;;;-3275.20;94.50;;;;;;5022231;28;20442;-80
2022/03/03 05:18:12;;;;;;;391.35;45.72;;;-3275.20;94.40;;;;;;5025207;28;20338;-81
2022/03/03 05:20:38;;;;;;;101.25;39.40;;;-3275.10;94.30;;;;;;5022036;28;20026;-79
2022/03/03 05:23:04;;;;;;;154.10;39.47;;;-3275.10;94.30;;;;;;5024729;28;20025;-79
2022/03/03 05:25:30;;;;;;;161.57;40.95;;;-3275.20;94.50;;;;;;5024311;28;20025;-79
2022/03/03 05:27:55;;;;;;;239.27;43.03;;;-3275.10;94.30;;;;;;5023502;28;20032;-79
2022/03/03 05:30:21;;;;;;;204.95;41.67;;;-3275.10;94.30;;;;;;5024111;28;20038;-79
2022/03/03 05:32:48;;;;;;;148.23;39.90;;;-3275.10;94.30;;;;;;5023285;28;20046;-79
2022/03/03 05:35:15;;;;;;;147.63;38.55;;;-3275.00;94.30;;;;;;5028380;28;20475;-79
2022/03/03 05:37:43;;;;;;;121.95;40.35;;;-3275.10;94.40;;;;;;5021136;28;20112;-79
2022/03/03 05:40:09;;;;;;;146.35;40.85;;;-3275.10;94.30;;;;;;5022875;28;20030;-79
2022/03/03 05:42:36;;;;;;;147.13;38.88;;;-3275.00;94.40;;;;;;5020328;28;20028;-80
2022/03/03 05:45:02;;;;;;;82.25;38.45;;;-3275.10;94.40;;;;;;5019311;28;20070;-79
2022/03/03 05:47:28;;;;;;;93.85;35.45;;;-3275.10;94.50;;;;;;5023168;28;20031;-79
2022/03/03 05:49:55;;;;;;;92.85;36.67;;;-3275.10;94.30;;;;;;5015192;28;20034;-79
2022/03/03 05:52:20;;;;;;;91.63;36.15;;;-3275.00;94.10;;;;;;5021375;28;20048;-79
2022/03/03 05:54:46;;;;;;;167.15;37.63;;;-3275.00;94.20;;;;;;5025819;28;20041;-79
2022/03/03 05:57:34;;;;;;;103.30;34.67;;;-3274.90;94.00;;;;;;5007392;28;20451;-80
2022/03/03 06:00:13;;;;;;;108.32;35.33;;;-3274.90;94.10;;;;;;5024250;28;20029;-80
2022/03/03 06:02:49;;;;;;;107.38;33.50;;;-3274.80;94.10;;;;;;5021588;28;20026;-79
2022/03/03 06:05:18;;;;;;;137.15;32.28;;;-3274.80;94.10;;;;;;5032258;28;20592;-79
2022/03/03 06:07:45;;;;;;;326.23;38.78;;;-3274.80;94.20;;;;;;5022325;28;20033;-79
2022/03/03 06:10:13;;;;;;;193.77;36.45;;;-3274.80;94.20;;;;;;5021468;28;20139;-79
2022/03/03 06:12:52;;;;;;;116.47;34.15;;;-3274.70;94.00;;;;;;5015013;28;20090;-79
2022/03/03 06:15:21;;;;;;;138.60;34.28;;;-3274.80;94.20;;;;;;5025179;28;20034;-79
2022/03/03 06:17:48;;;;;;;82.22;34.03;;;-3274.80;94.10;;;;;;5025465;28;20056;-80
2022/03/03 06:20:15;;;;;;;131.02;36.85;;;-3274.80;94.20;;;;;;5026275;28;20025;-79
2022/03/03 06:22:41;;;;;;;148.05;36.30;;;-3274.80;94.10;;;;;;5023922;28;20574;-79
2022/03/03 06:25:07;;;;;;;78.50;33.78;;;-3274.90;94.00;;;;;;5016329;28;20528;-79
2022/03/03 06:27:32;;;;;;;193.25;33.95;;;-3274.80;93.80;;;;;;5025543;28;20033;-79
2022/03/03 06:29:58;;;;;;;179.13;33.35;;;-3274.70;93.80;;;;;;5024565;28;20025;-79
2022/03/03 06:32:24;;;;;;;124.40;34.03;;;-3274.70;93.80;;;;;;5022420;28;20046;-79
2022/03/03 06:34:50;;;;;;;104.75;32.67;;;-3274.70;93.90;;;;;;5036080;28;20099;-79
2022/03/03 06:37:15;;;;;;;262.90;36.15;;;-3274.70;93.90;;;;;;5046224;28;20028;-79
2022/03/03 06:39:41;;;;;;;175.15;35.72;;;-3274.60;93.70;;;;;;5023737;28;20445;-80
2022/03/03 06:42:07;;;;;;;384.98;37.22;;;-3274.80;94.00;;;;;;5022743;28;20029;-80
2022/03/03 06:44:33;;;;;;;147.88;33.85;;;-3274.60;93.60;;;;;;5026557;28;20022;-79
2022/03/03 06:46:59;;;;;;;307.15;38.13;;;-3274.60;93.90;;;;;;5045272;28;20029;-80
2022/03/03 06:49:24;;;;;;;297.65;34.35;;;-3274.60;93.60;;;;;;5020918;28;20338;-79
2022/03/03 06:51:53;;;;;;;216.05;33.42;;;-3274.50;93.60;;;;;;5025145;28;20028;-79
2022/03/03 06:54:21;;;;;;;282.05;35.97;;;-3274.60;94.00;;;;;;5030750;28;20032;-79
2022/03/03 06:56:48;;;;;;;118.70;30.92;;;-3274.60;93.80;;;;;;5020310;28;20057;-79
2022/03/03 06:59:16;;;;;;;69.47;31.23;;;-3274.70;94.00;;;;;;5019652;28;20033;-79
2022/03/03 07:01:42;;;;;;;67.78;32.78;;;-3274.80;94.00;;;;;;5029072;28;20025;-80
2022/03/03 07:04:11;;;;;;;59.38;30.83;;;-3275.00;94.30;;;;;;5010850;28;20453;-80
2022/03/03 07:06:37;;;;;;;73.00;27.23;;;-3275.10;94.20;;;;;;5042659;28;20514;-79
2022/03/03 07:09:02;;;;;;;171.60;30.05;;;-3275.10;94.00;;;;;;5028105;28;20101;-80
2022/03/03 07:11:29;;;;;;;60.72;28.60;;;-3275.00;93.90;;;;;;5028174;28;20025;-79
2022/03/03 07:13:58;;;;;;;99.40;29.35;;;-3275.10;93.90;;;;;;5030341;28;20035;-80
2022/03/03 07:16:50;;;;;;;56.97;27.73;;;-3275.00;93.60;;;;;;5032269;28;20060;-79
2022/03/03 07:19:43;;;;;;;52.70;27.92;;;-3275.00;93.60;;;;;;5014873;28;20474;-79
2022/03/03 07:22:15;;;;;;;58.00;27.88;;;-3275.10;93.70;;;;;;5039840;28;20104;-79
2022/03/03 07:24:57;;;;;;;57.03;26.02;;;-3275.10;93.40;;;;;;5046481;28;20128;-79
2022/03/03 07:27:24;;;;;;;52.03;27.55;;;-3275.20;93.60;;;;;;5035218;28;20149;-79
2022/03/03 07:30:12;;;;;;;57.17;28.27;;;-3275.30;93.50;;;;;;5027135;28;20049;-79
2022/03/03 07:32:46;;;;;;;46.35;24.25;;;-3275.30;93.20;;;;;;5045500;28;20041;-79
2022/03/03 07:35:14;;;;;;;54.83;28.40;;;-3275.20;93.00;;;;;;5049992;28;20086;-79
2022/03/03 07:37:57;;;;;;;46.45;26.60;;;-3275.20;93.10;;;;;;5031289;28;20402;-78
2022/03/03 07:40:27;;;;;;;47.85;26.75;;;-3275.30;93.20;;;;;;5047106;28;20040;-80
2022/03/03 07:43:00;;;;;;;46.90;26.27;;;-3275.40;93.00;;;;;;5028450;28;20021;-79
2022/03/03 07:45:26;;;;;;;46.55;25.75;;;-3275.70;93.10;;;;;;5032598;28;20033;-79
2022/03/03 07:47:55;;;;;;;46.75;25.85;;;-3275.80;92.80;;;;;;5037194;28;20029;-79
2022/03/03 07:50:21;;;;;;;49.15;25.48;;;-3275.70;92.60;;;;;;5022179;28;20033;-80
2022/03/03 07:52:49;;;;;;;48.13;26.88;;;-3275.60;92.20;;;;;;5026478;28;20447;-79
2022/03/03 07:55:15;;;;;;;51.28;27.55;;;-3275.90;92.60;;;;;;5030458;28;20094;-79
2022/03/03 07:57:49;;;;;;;46.53;27.25;;;-3276.00;92.30;;;;;;5044764;28;20033;-78
2022/03/03 08:00:14;;;;;;;47.40;24.60;;;-3276.40;92.40;;;;;;5048462;28;20469;-79
2022/03/03 08:02:43;;;;;;;46.75;25.80;;;-3276.20;91.50;;;;;;5052183;28;20136;-79
2022/03/03 08:05:09;;;;;;;45.17;25.38;;;-3276.30;91.30;;;;;;5022466;28;20115;-79
2022/03/03 08:07:44;;;;;;;45.33;24.27;;;-3276.20;91.20;;;;;;5049117;28;20152;-79
2022/03/03 08:10:12;;;;;;;41.20;24.40;;;-3276.10;91.10;;;;;;5036282;28;20032;-78
2022/03/03 08:12:39;;;;;;;39.70;22.95;;;-3276.30;91.30;;;;;;5028396;28;20036;-79
2022/03/03 08:15:06;;;;;;;41.78;24.92;;;-3276.50;91.20;;;;;;5047206;28;20025;-78
2022/03/03 08:17:34;;;;;;;40.47;24.70;;;-3276.60;90.90;;;;;;5046320;28;20203;-77
2022/03/03 08:20:02;;;;;;;42.85;24.05;;;-3276.70;90.80;;;;;;5031015;28;20127;-78
2022/03/03 08:22:28;;;;;;;40.28;23.30;;;-3276.70;90.40;;;;;;5016334;28;20045;-78
2022/03/03 08:24:55;;;;;;;43.53;25.08;;;0.00;90.40;;;;;;5037394;28;20401;-78
2022/03/03 08:27:22;;;;;;;44.38;25.63;;;0.00;90.20;;;;;;5038592;28;20104;-78
2022/03/03 08:29:48;;;;;;;44.35;24.10;;;0.00;89.60;;;;;;5027788;28;20030;-78
2022/03/03 08:32:16;;;;;;;41.15;22.17;;;0.00;89.60;;;;;;5048990;28;20025;-78
2022/03/03 08:34:57;;;;;;;42.25;22.83;;;0.10;89.70;;;;;;5048878;28;20039;-78
2022/03/03 08:37:43;;;;;;;39.60;22.17;;;0.20;89.40;;;;;;5045165;28;20031;-78
2022/03/03 08:40:12;;;;;;;36.42;21.55;;;0.40;89.50;;;;;;5025839;28;20086;-78
2022/03/03 08:42:46;;;;;;;40.03;22.80;;;0.30;89.20;;;;;;5014806;28;20430;-78
2022/03/03 08:45:12;;;;;;;38.30;21.17;;;0.40;89.20;;;;;;5021477;28;20403;-78
2022/03/03 08:47:41;;;;;;;38.30;21.55;;;0.50;89.10;;;;;;5029044;28;20479;-78
2022/03/03 08:50:13;;;;;;;35.35;20.70;;;0.20;88.00;;;;;;5038935;28;20029;-78
2022/03/03 08:52:40;;;;;;;34.30;19.85;;;0.50;88.90;;;;;;5046533;28;20044;-78
2022/03/03 08:55:08;;;;;;;35.75;20.38;;;0.20;88.20;;;;;;5028391;28;20056;-78
2022/03/03 08:57:33;;;;;;;32.13;19.25;;;0.50;88.90;;;;;;5042317;28;20095;-78
2022/03/03 08:59:59;;;;;;;31.73;19.08;;;0.80;88.90;;;;;;5037625;28;20021;-78
2022/03/03 09:02:24;;;;;;;36.10;18.42;;;1.20;88.70;;;;;;5042418;28;20044;-78
2022/03/03 09:04:50;;;;;;;32.65;18.67;;;1.50;88.00;;;;;;5042167;28;20397;-78
2022/03/03 09:07:16;;;;;;;33.22;20.10;;;1.50;87.30;;;;;;5023848;28;20029;-78
2022/03/03 09:09:42;;;;;;;33.80;20.42;;;1.50;87.10;;;;;;5030162;28;20067;-78
2022/03/03 09:12:08;;;;;;;30.67;18.63;;;1.60;86.40;;;;;;5042997;28;20041;-78
2022/03/03 09:14:34;;;;;;;30.08;17.65;;;1.70;86.20;;;;;;5023397;28;20453;-78
2022/03/03 09:16:59;;;;;;;33.83;18.75;;;2.10;86.70;;;;;;5046350;28;20181;-78
2022/03/03 09:19:26;;;;;;;28.80;18.00;;;1.90;86.00;;;;;;5047005;28;20388;-79
2022/03/03 09:21:51;;;;;;;31.45;17.60;;;2.10;85.70;;;;;;5027313;28;20536;-79
2022/03/03 09:24:17;;;;;;;30.15;18.52;;;1.80;84.70;;;;;;5044824;28;20100;-79
2022/03/03 09:26:43;;;;;;;26.58;16.65;;;1.90;84.60;;;;;;5043433;28;20109;-79
2022/03/03 09:29:08;;;;;;;28.23;16.80;;;2.10;84.30;;;;;;5025449;28;20047;-79
2022/03/03 09:31:34;;;;;;;32.30;18.45;;;2.00;84.00;;;;;;5029952;28;20146;-79
2022/03/03 09:33:59;;;;;;;34.55;19.90;;;2.30;84.30;;;;;;5015704;28;20130;-78
2022/03/03 09:36:25;;;;;;;31.15;18.60;;;2.50;84.30;;;;;;5027164;28;20054;-80
2022/03/03 09:38:50;;;;;;;31.77;19.08;;;2.70;84.90;;;;;;5029183;28;20499;-79
2022/03/03 09:41:16;;;;;;;30.48;17.45;;;3.20;84.60;;;;;;5030985;28;20032;-79
2022/03/03 09:43:43;;;;;;;26.83;17.25;;;3.20;82.70;;;;;;5043878;28;20476;-79
2022/03/03 09:46:10;;;;;;;25.77;16.63;;;3.20;82.20;;;;;;5026329;28;20017;-79
2022/03/03 09:48:35;;;;;;;27.90;16.50;;;3.20;81.70;;;;;;5026722;28;20048;-77
2022/03/03 09:51:01;;;;;;;25.95;14.95;;;3.40;83.00;;;;;;5027423;28;20025;-78
2022/03/03 09:53:27;;;;;;;25.00;15.18;;;3.50;81.10;;;;;;5040061;28;20384;-78
2022/03/03 09:55:52;;;;;;;28.63;15.63;;;4.10;81.90;;;;;;5045627;28;20025;-79
2022/03/03 09:58:18;;;;;;;26.35;15.63;;;4.40;80.40;;;;;;5026844;28;20033;-78
2022/03/03 10:00:44;;;;;;;28.13;15.98;;;3.90;79.00;;;;;;5029034;28;20036;-79
2022/03/03 10:03:14;;;;;;;23.83;14.20;;;4.50;80.80;;;;;;5022061;28;20032;-78
2022/03/03 10:05:42;;;;;;;22.58;14.18;;;4.40;78.50;;;;;;5024795;28;20040;-78
2022/03/03 10:08:16;;;;;;;21.00;13.48;;;4.30;77.80;;;;;;5027738;28;20138;-79
2022/03/03 10:10:45;;;;;;;20.58;13.27;;;4.50;79.40;;;;;;5020055;28;20128;-78
2022/03/03 10:13:17;;;;;;;20.33;12.27;;;4.50;78.00;;;;;;5028573;28;20430;-79
2022/03/03 10:15:51;;;;;;;17.95;11.85;;;4.60;78.70;;;;;;5012348;28;20469;-79
2022/03/03 10:18:18;;;;;;;22.10;12.40;;;4.80;76.70;;;;;;5049405;28;20440;-78
2022/03/03 10:20:51;;;;;;;19.60;12.32;;;4.90;77.20;;;;;;5008438;28;20401;-78
2022/03/03 10:23:27;;;;;;;19.05;11.73;;;5.10;76.70;;;;;;5039152;28;20392;-78
2022/03/03 10:25:54;;;;;;;16.25;10.00;;;5.30;77.30;;;;;;5041915;28;20035;-79
2022/03/03 10:28:25;;;;;;;16.77;10.57;;;5.60;75.00;;;;;;5032349;28;20029;-78
2022/03/03 10:31:01;;;;;;;19.27;10.50;;;5.40;74.80;;;;;;5022051;28;20032;-78
2022/03/03 10:33:29;;;;;;;18.20;10.93;;;5.50;74.90;;;;;;5041082;28;20052;-78
2022/03/03 10:35:57;;;;;;;17.50;10.65;;;5.50;74.80;;;;;;5038388;28;20053;-79
2022/03/03 10:38:23;;;;;;;16.15;10.20;;;5.60;74.00;;;;;;5040516;28;20131;-79
2022/03/03 10:40:49;;;;;;;15.80;10.38;;;5.60;74.60;;;;;;5028602;28;20398;-78
2022/03/03 10:43:14;;;;;;;16.90;10.25;;;5.50;74.60;;;;;;5034722;28;20329;-79
2022/03/03 10:45:57;;;;;;;15.93;10.18;;;5.80;74.60;;;;;;5025452;28;20028;-79
2022/03/03 10:48:25;;;;;;;16.25;9.75;;;5.70;74.60;;;;;;5038261;28;20036;-78
2022/03/03 10:50:54;;;;;;;16.15;10.15;;;5.80;76.00;;;;;;5042653;28;20158;-78
2022/03/03 10:53:24;;;;;;;18.40;10.68;;;5.90;74.30;;;;;;5031386;28;20043;-78
2022/03/03 10:56:07;;;;;;;16.75;10.02;;;6.10;73.60;;;;;;5023767;28;20025;-79
2022/03/03 10:58:53;;;;;;;19.52;11.05;;;6.40;73.40;;;;;;5044787;28;20082;-79
2022/03/03 11:01:24;;;;;;;17.48;10.15;;;6.50;73.60;;;;;;5015164;28;20025;-78
2022/03/03 11:03:50;;;;;;;;;;;6.30;72.60;;;;;;5022801;28;20036;-79
2022/03/03 11:06:17;;;;;;;17.83;10.27;;;6.00;72.80;;;;;;5019070;28;19908;-78
2022/03/03 11:08:43;;;;;;;16.10;10.13;;;5.80;72.40;;;;;;5041767;28;20096;-79
2022/03/03 11:11:08;;;;;;;17.13;10.18;;;5.90;74.50;;;;;;5017933;28;20033;-79
2022/03/03 11:13:35;;;;;;;18.00;9.65;;;5.70;75.00;;;;;;5023021;28;20472;-78
2022/03/03 11:16:02;;;;;;;16.45;9.75;;;6.00;75.20;;;;;;5028655;28;20148;-78
2022/03/03 11:18:28;;;;;;;16.58;10.00;;;6.20;74.60;;;;;;5046240;28;20029;-79
2022/03/03 11:20:54;;;;;;;16.08;10.23;;;6.10;73.90;;;;;;5033212;28;20493;-78
2022/03/03 11:23:20;;;;;;;19.92;11.25;;;5.60;73.80;;;;;;5039145;28;20025;-79
2022/03/03 11:25:49;;;;;;;18.77;10.13;;;5.90;73.90;;;;;;5045119;28;20041;-79
2022/03/03 11:28:15;;;;;;;21.27;11.02;;;6.00;72.90;;;;;;5018283;28;20065;-78
2022/03/03 11:30:48;;;;;;;20.27;11.55;;;6.30;74.50;;;;;;5028422;28;20060;-78
2022/03/03 11:33:23;;;;;;;16.67;9.57;;;6.20;75.00;;;;;;5025101;28;20064;-79
2022/03/03 11:35:52;;;;;;;18.95;10.73;;;6.00;73.80;;;;;;5042616;28;20128;-78
2022/03/03 11:38:19;;;;;;;18.88;10.38;;;5.50;74.10;;;;;;5043963;28;20486;-78
2022/03/03 11:40:57;;;;;;;17.45;10.77;;;5.90;74.90;;;;;;5024489;28;20108;-78
2022/03/03 11:43:23;;;;;;;17.50;10.43;;;6.10;74.60;;;;;;5021766;28;20056;-79
2022/03/03 11:45:55;;;;;;;17.45;11.07;;;5.80;73.60;;;;;;5016504;28;20024;-79
2022/03/03 11:48:22;;;;;;;18.40;11.05;;;5.70;74.10;;;;;;5028297;28;20031;-78
2022/03/03 11:50:49;;;;;;;18.38;10.27;;;6.00;74.40;;;;;;5023111;28;20453;-79
2022/03/03 11:53:19;;;;;;;18.88;11.60;;;6.20;74.80;;;;;;5027175;28;20084;-79
2022/03/03 11:55:54;;;;;;;18.15;10.40;;;6.50;73.20;;;;;;5036538;28;20020;-79
2022/03/03 11:58:26;;;;;;;20.40;10.10;;;7.00;70.90;;;;;;5015747;28;20037;-79
2022/03/03 12:01:03;;;;;;;18.88;10.15;;;7.20;71.20;;;;;;5026880;28;20056;-79
2022/03/03 12:03:29;;;;;;;15.80;9.60;;;7.20;69.90;;;;;;5039592;28;20094;-79
2022/03/03 12:06:10;;;;;;;14.63;9.18;;;6.10;71.70;;;;;;5043346;28;20029;-78
2022/03/03 12:08:40;;;;;;;14.45;8.38;;;6.10;71.60;;;;;;5026995;28;20029;-78
2022/03/03 12:11:16;;;;;;;13.83;8.63;;;6.20;71.20;;;;;;5038675;28;20044;-78